Moree, Australia
Current Conditions -  °F | °C
As of 6:00 PM on Friday 31 Oct 2014 (Local Time) from YMOR Reporting Station
Clear Clear  
Wind Chill: 95°   Ceiling: Unl
Heat Index: 95°   Visibility: 6mi
Dew Point: 39°   Wind: 10mph
Humidity: 14%   Direction: 360°N
Pressure: 29.74"   Gusts: NA
Location:  29.46°S, 149.84°E
Report Text: YMOR 310700Z AUTO 36009KT 9999 // NCD 35/04 Q1007
Loading
Personal Weather Stations






























Interactive Weather Map
Tropical Storm Tracking
New forecast layout! Learn more

10-Day Weather Forecast

Advertisements
Track Severe Weather on mobile